Time;durP1;ratioP1;P1;durP2;ratioP2;P2;SDS_P1;SDS_P2;PMS_P1;PMS_P2;Temp;Humidity;BMP_temperature;BMP_pressure;BME280_temperature;BME280_humidity;BME280_pressure;Samples;Min_cycle;Max_cycle;Signal;HPM_P1;HPM_P2
2022/12/28 00:00:18;;;;;;;11.00;7.30;;;;;;;4.74;57.84;98729.94;8449892;28;20224;-67
2022/12/28 00:04:23;;;;;;;12.20;7.40;;;;;;;4.70;58.92;98714.59;8449569;28;20220;-67
2022/12/28 00:08:25;;;;;;;12.23;7.50;;;;;;;5.23;57.22;98724.34;8449667;28;20230;-67
2022/12/28 00:12:29;;;;;;;10.30;7.37;;;;;;;4.77;58.58;98710.25;8449626;28;20224;-67
2022/12/28 00:16:33;;;;;;;10.17;6.90;;;;;;;4.74;57.80;98671.78;8449622;28;20239;-67
2022/12/28 00:20:37;;;;;;;11.77;7.30;;;;;;;4.24;59.40;98711.53;8449219;28;20237;-67
2022/12/28 00:24:40;;;;;;;8.87;6.33;;;;;;;5.09;57.27;98701.38;8449095;28;20241;-67
2022/12/28 00:28:44;;;;;;;9.20;6.40;;;;;;;4.81;57.16;98664.88;8449084;28;20236;-67
2022/12/28 00:32:47;;;;;;;11.20;7.03;;;;;;;5.16;56.95;98692.75;8447818;28;20228;-67
2022/12/28 00:36:52;;;;;;;10.67;6.40;;;;;;;5.33;56.01;98701.97;8448475;28;20323;-67
2022/12/28 00:41:14;;;;;;;9.23;6.40;;;;;;;5.13;57.06;98702.19;8448469;28;20224;-66
2022/12/28 00:45:17;;;;;;;8.73;7.00;;;;;;;4.70;56.67;98629.03;8448426;28;20256;-67
2022/12/28 00:49:20;;;;;;;11.83;8.10;;;;;;;5.18;56.55;98693.59;8448244;28;20537;-66
2022/12/28 00:53:24;;;;;;;9.90;7.60;;;;;;;5.35;56.20;98695.09;8448226;28;20250;-67
2022/12/28 00:57:27;;;;;;;10.43;7.67;;;;;;;5.04;56.98;98682.59;8448280;28;20219;-67
2022/12/28 01:01:30;;;;;;;10.27;6.60;;;;;;;5.27;55.89;98682.34;8448129;28;20230;-67
2022/12/28 01:05:33;;;;;;;9.07;6.83;;;;;;;5.28;56.13;98684.06;8447454;28;20308;-67
2022/12/28 01:09:37;;;;;;;10.23;6.73;;;;;;;5.33;55.70;98691.69;8447963;28;20257;-69
2022/12/28 01:13:40;;;;;;;9.80;6.30;;;;;;;5.08;56.83;98681.69;8447705;28;20553;-67
2022/12/28 01:17:43;;;;;;;9.47;6.57;;;;;;;4.13;59.57;98678.25;8447294;28;20237;-67
2022/12/28 01:21:47;;;;;;;8.67;5.70;;;;;;;3.80;60.91;98657.13;8447228;28;20242;-67
2022/12/28 01:25:52;;;;;;;8.13;5.80;;;;;;;4.63;58.08;98653.09;8446973;28;20227;-68
2022/12/28 01:29:55;;;;;;;7.87;5.00;;;;;;;4.52;58.53;98598.47;8446863;28;20230;-68
2022/12/28 01:33:58;;;;;;;8.23;5.23;;;;;;;4.62;58.54;98634.25;8446970;28;20271;-69
2022/12/28 01:38:01;;;;;;;8.27;5.00;;;;;;;4.53;58.44;98631.78;8446983;28;20259;-68
2022/12/28 01:42:05;;;;;;;6.67;4.87;;;;;;;4.73;58.57;98638.44;8446784;28;20228;-67
2022/12/28 01:46:10;;;;;;;7.33;4.97;;;;;;;4.94;57.90;98620.25;8446476;28;20294;-67
2022/12/28 01:50:16;;;;;;;6.00;4.50;;;;;;;5.13;57.06;98609.78;8446753;28;20644;-67
2022/12/28 01:54:20;;;;;;;7.83;5.10;;;;;;;5.09;57.31;98606.38;8446658;28;20247;-68
2022/12/28 01:58:26;;;;;;;9.03;5.13;;;;;;;5.17;57.31;98596.03;8446370;28;20220;-67
2022/12/28 02:02:29;;;;;;;7.03;4.70;;;;;;;5.19;57.07;98600.25;8446388;28;20224;-68
2022/12/28 02:06:32;;;;;;;6.03;4.67;;;;;;;5.37;56.78;98593.19;8446331;28;20230;-67
2022/12/28 02:10:36;;;;;;;6.60;4.97;;;;;;;5.02;57.37;98587.63;8446281;28;20232;-68
2022/12/28 02:14:48;;;;;;;7.03;4.33;;;;;;;4.76;58.13;98582.81;8446220;28;20227;-68
2022/12/28 02:18:52;;;;;;;7.90;4.90;;;;;;;4.87;57.76;98582.69;8445824;28;20423;-67
2022/12/28 02:23:18;;;;;;;6.17;4.37;;;;;;;4.29;59.99;98558.50;8445414;28;20228;-67
2022/12/28 02:27:27;;;;;;;6.93;4.80;;;;;;;4.28;60.22;98546.53;8446025;28;20230;-67
2022/12/28 02:31:36;;;;;;;6.00;4.90;;;;;;;3.83;62.06;98540.97;8445701;28;20225;-67
2022/12/28 02:35:47;;;;;;;7.13;4.40;;;;;;;4.46;60.05;98532.69;8445837;28;20382;-67
2022/12/28 02:39:53;;;;;;;10.00;5.70;;;;;;;3.67;61.88;98519.72;8445564;28;20224;-67
2022/12/28 02:43:56;;;;;;;6.77;4.80;;;;;;;4.42;58.84;98520.75;8444811;28;20235;-67
2022/12/28 02:52:24;;;;;;;6.10;4.80;;;;;;;4.52;58.82;98481.31;8445448;28;20238;-67
2022/12/28 02:56:33;;;;;;;5.93;5.00;;;;;;;4.99;58.23;98514.94;8449012;28;20527;-67
2022/12/28 03:00:45;;;;;;;6.17;4.90;;;;;;;4.85;58.17;98513.38;8451904;28;20416;-67
2022/12/28 03:04:58;;;;;;;6.83;4.80;;;;;;;5.01;58.37;98495.25;8451732;28;20237;-66
2022/12/28 03:09:04;;;;;;;6.87;5.13;;;;;;;4.74;59.17;98479.34;8450941;28;20251;-67
2022/12/28 03:13:41;;;;;;;6.20;5.30;;;;;;;4.93;58.75;98459.44;8451368;28;20227;-67
2022/12/28 03:35:02;;;;;;;6.33;5.33;;;;;;;5.32;58.08;98476.84;8450494;28;20483;-67
2022/12/28 03:39:10;;;;;;;9.40;5.50;;;;;;;5.45;57.50;98460.38;8450586;28;20224;-67
2022/12/28 03:47:40;;;;;;;8.80;5.13;;;;;;;4.75;58.07;98386.09;8450535;28;20219;-67
2022/12/28 03:51:43;;;;;;;7.13;5.90;;;;;;;4.78;59.80;98431.38;8450308;28;20423;-67
2022/12/28 03:55:47;;;;;;;6.53;5.30;;;;;;;5.17;58.49;98434.25;8449785;28;20228;-67
2022/12/28 03:59:50;;;;;;;7.77;5.57;;;;;;;5.01;58.23;98421.66;8449846;28;20577;-68
2022/12/28 04:03:53;;;;;;;6.47;5.47;;;;;;;4.88;59.48;98399.59;8449473;28;20238;-68
2022/12/28 04:07:56;;;;;;;7.80;6.33;;;;;;;5.28;58.51;98420.38;8449347;28;20228;-67
2022/12/28 04:12:00;;;;;;;7.53;5.87;;;;;;;5.19;59.00;98425.66;8449839;28;20228;-67
2022/12/28 04:16:05;;;;;;;7.33;5.50;;;;;;;5.13;58.73;98415.47;8449444;28;20228;-67
2022/12/28 04:20:09;;;;;;;7.83;5.80;;;;;;;5.44;58.04;98402.16;8449312;28;20232;-66
2022/12/28 04:24:12;;;;;;;7.23;5.93;;;;;;;4.65;60.29;98403.34;8449000;28;20244;-67
2022/12/28 04:28:16;;;;;;;6.47;5.70;;;;;;;4.68;60.98;98395.59;8449249;28;20230;-67
2022/12/28 04:32:19;;;;;;;6.83;5.70;;;;;;;4.99;59.84;98408.00;8448755;28;20224;-67
2022/12/28 04:36:22;;;;;;;7.30;5.87;;;;;;;4.92;60.41;98402.97;8448730;28;20224;-67
2022/12/28 04:40:25;;;;;;;7.17;5.97;;;;;;;4.04;63.71;98406.66;8448627;28;20242;-68
2022/12/28 04:44:29;;;;;;;7.37;6.67;;;;;;;3.57;65.18;98388.34;8448551;28;20227;-67
2022/12/28 04:48:32;;;;;;;7.77;6.53;;;;;;;3.73;64.83;98391.59;8448441;28;20219;-67
2022/12/28 04:52:35;;;;;;;8.63;7.10;;;;;;;3.08;67.23;98392.16;8448287;28;20413;-66
2022/12/28 04:56:38;;;;;;;9.63;7.70;;;;;;;3.50;66.60;98399.50;8448038;28;20246;-67
2022/12/28 05:00:42;;;;;;;8.07;7.10;;;;;;;3.78;65.35;98397.53;8448075;28;20238;-67
2022/12/28 05:04:45;;;;;;;8.73;7.53;;;;;;;3.43;65.96;98405.56;8447729;28;20296;-67
2022/12/28 05:08:48;;;;;;;8.13;6.40;;;;;;;4.56;63.54;98376.97;8447753;28;20219;-67
2022/12/28 05:12:51;;;;;;;8.23;7.00;;;;;;;4.98;62.09;98384.91;8447624;28;20227;-67
2022/12/28 05:16:55;;;;;;;9.53;7.00;;;;;;;4.26;63.22;98382.44;8446976;28;20413;-67
2022/12/28 05:20:59;;;;;;;7.67;6.87;;;;;;;4.40;64.41;98378.84;8447232;28;20227;-66
2022/12/28 05:25:02;;;;;;;9.67;7.33;;;;;;;4.60;62.72;98358.94;8447299;28;20399;-66
2022/12/28 05:29:05;;;;;;;7.97;6.60;;;;;;;5.15;61.33;98362.38;8447324;28;20507;-67
2022/12/28 05:33:09;;;;;;;8.13;7.07;;;;;;;5.21;60.77;98364.00;8447104;28;20228;-67
2022/12/28 05:37:14;;;;;;;7.50;6.60;;;;;;;5.54;60.51;98359.16;8447113;28;20230;-67
2022/12/28 05:41:25;;;;;;;6.93;6.23;;;;;;;5.03;62.53;98366.00;8446714;28;20294;-66
2022/12/28 05:45:28;;;;;;;10.47;7.13;;;;;;;4.96;62.53;98360.97;8446756;28;20234;-66
2022/12/28 05:49:32;;;;;;;7.67;6.83;;;;;;;4.83;63.66;98365.44;8446725;28;20225;-66
2022/12/28 05:53:35;;;;;;;8.33;6.20;;;;;;;4.41;63.00;98248.06;8446846;28;20224;-67
2022/12/28 05:57:38;;;;;;;8.10;6.97;;;;;;;5.32;62.09;98368.97;8446620;28;20231;-67
2022/12/28 06:01:43;;;;;;;8.80;7.27;;;;;;;5.40;61.46;98374.81;8446239;28;20236;-66
2022/12/28 06:05:47;;;;;;;8.27;7.10;;;;;;;5.21;61.09;98369.97;8446355;28;20238;-66
2022/12/28 06:09:50;;;;;;;7.90;7.10;;;;;;;5.13;61.58;98347.88;8446129;28;20247;-67
2022/12/28 06:13:53;;;;;;;8.23;6.90;;;;;;;5.22;62.09;98353.72;8445701;28;20228;-67
2022/12/28 06:17:56;;;;;;;7.87;6.70;;;;;;;5.45;61.82;98355.03;8445851;28;20299;-67
2022/12/28 06:22:00;;;;;;;8.00;6.93;;;;;;;5.76;60.46;98349.34;8445972;28;20227;-67
2022/12/28 06:26:05;;;;;;;7.77;6.97;;;;;;;5.70;60.48;98359.75;8445997;28;20238;-66
2022/12/28 06:30:10;;;;;;;9.03;7.37;;;;;;;5.63;61.29;98362.41;8447011;28;20227;-67
2022/12/28 06:34:13;;;;;;;7.50;6.63;;;;;;;5.68;60.65;98350.31;8452777;28;20239;-67
2022/12/28 06:38:17;;;;;;;10.37;8.03;;;;;;;4.86;64.29;98339.75;8452890;28;20219;-66
2022/12/28 06:42:20;;;;;;;7.73;6.57;;;;;;;5.61;61.72;98332.47;8452437;28;20227;-67
2022/12/28 06:46:24;;;;;;;6.93;6.20;;;;;;;5.89;60.42;98332.81;8452468;28;20231;-66
2022/12/28 06:50:27;;;;;;;8.33;7.43;;;;;;;5.58;61.77;98325.69;8452510;28;20219;-67
2022/12/28 06:54:31;;;;;;;6.87;6.27;;;;;;;5.29;62.94;98311.66;8452304;28;20230;-67
2022/12/28 06:58:34;;;;;;;7.07;6.40;;;;;;;5.42;61.89;98309.69;8451762;28;20231;-67
2022/12/28 07:02:37;;;;;;;7.00;6.30;;;;;;;5.64;61.43;98306.75;8452066;28;20230;-67
2022/12/28 07:06:41;;;;;;;7.30;6.60;;;;;;;5.50;62.45;98309.56;8451565;28;20301;-67
2022/12/28 07:10:45;;;;;;;8.27;6.70;;;;;;;5.29;63.62;98301.38;8451547;28;20231;-66
2022/12/28 07:14:48;;;;;;;7.03;6.33;;;;;;;5.57;62.73;98295.72;8451715;28;20231;-66
2022/12/28 07:18:52;;;;;;;9.10;6.93;;;;;;;4.94;64.27;98278.03;8451785;28;20234;-67
2022/12/28 07:22:54;;;;;;;8.17;7.10;;;;;;;5.13;64.06;98284.53;8450965;28;20242;-67
2022/12/28 07:26:58;;;;;;;8.90;6.70;;;;;;;5.40;63.40;98280.63;8450956;28;20235;-67
2022/12/28 07:31:06;;;;;;;8.20;7.17;;;;;;;4.67;66.06;98282.72;8451372;28;20445;-67
2022/12/28 07:35:09;;;;;;;9.70;7.40;;;;;;;4.64;66.80;98282.78;8450981;28;20582;-67
2022/12/28 07:39:12;;;;;;;9.63;7.60;;;;;;;4.74;65.91;98274.06;8450696;28;20224;-67
2022/12/28 07:43:16;;;;;;;7.80;6.70;;;;;;;5.28;64.69;98276.56;8449821;28;20223;-67
2022/12/28 07:47:19;;;;;;;7.37;6.53;;;;;;;4.67;67.18;98278.44;8450598;28;20307;-66
2022/12/28 07:51:23;;;;;;;7.10;6.40;;;;;;;5.12;65.28;98271.72;8450405;28;20230;-67
2022/12/28 07:55:28;;;;;;;7.03;6.33;;;;;;;5.66;63.30;98261.31;8450587;28;20394;-68
2022/12/28 07:59:33;;;;;;;6.70;5.93;;;;;;;5.76;63.81;98277.38;8449972;28;20227;-66
2022/12/28 08:03:36;;;;;;;7.30;6.13;;;;;;;6.13;61.64;98264.66;8450085;28;20227;-68
2022/12/28 08:07:39;;;;;;;7.43;6.43;;;;;;;6.59;60.57;98268.75;8449892;28;20232;-67
2022/12/28 08:11:43;;;;;;;7.77;6.50;;;;;;;6.44;61.08;98251.94;8449813;28;20235;-67
2022/12/28 08:15:54;;;;;;;7.40;6.60;;;;;;;6.82;59.84;98252.75;8449577;28;20242;-66
2022/12/28 08:19:57;;;;;;;8.63;7.73;;;;;;;6.81;60.57;98261.34;8449260;28;20296;-67
2022/12/28 08:24:01;;;;;;;8.27;7.37;;;;;;;6.87;60.04;98257.78;8449132;28;20253;-67
2022/12/28 08:28:04;;;;;;;11.73;7.03;;;;;;;6.96;59.89;98265.28;8449138;28;20226;-68
2022/12/28 08:32:09;;;;;;;7.60;6.80;;;;;;;7.15;59.47;98269.97;8449023;28;20235;-67
2022/12/28 08:36:12;;;;;;;6.90;6.20;;;;;;;7.15;59.75;98264.81;8449047;28;20522;-68
2022/12/28 08:40:14;;;;;;;6.77;6.13;;;;;;;6.80;59.62;98172.16;8448823;28;20507;-68
2022/12/28 08:44:17;;;;;;;9.27;6.70;;;;;;;7.31;59.76;98255.81;8448583;28;20227;-68
2022/12/28 08:48:21;;;;;;;6.73;6.07;;;;;;;7.15;60.26;98251.94;8448672;28;20247;-68
2022/12/28 08:52:24;;;;;;;6.90;6.20;;;;;;;7.30;60.44;98248.13;8447540;28;20223;-68
2022/12/28 08:56:29;;;;;;;8.20;6.67;;;;;;;6.91;61.53;98250.81;8448422;28;20231;-67
2022/12/28 09:00:32;;;;;;;7.30;6.03;;;;;;;6.95;61.64;98255.00;8447767;28;20216;-68
2022/12/28 09:04:36;;;;;;;7.13;6.43;;;;;;;7.38;60.68;98248.75;8448018;28;20432;-67
2022/12/28 09:08:39;;;;;;;7.63;6.03;;;;;;;7.47;62.11;98250.25;8447914;28;20519;-67
2022/12/28 09:12:44;;;;;;;6.53;5.93;;;;;;;7.28;60.90;98219.81;8447823;28;20243;-67
2022/12/28 09:16:46;;;;;;;8.50;6.83;;;;;;;7.59;60.16;98232.69;8447611;28;20238;-67
2022/12/28 09:20:50;;;;;;;8.43;7.53;;;;;;;7.46;61.41;98236.50;8447630;28;20231;-68
2022/12/28 09:24:53;;;;;;;7.23;6.53;;;;;;;7.89;59.89;98229.31;8447089;28;20405;-68
2022/12/28 09:28:58;;;;;;;8.03;6.40;;;;;;;7.95;59.97;98239.44;8447425;28;20240;-68
2022/12/28 09:37:18;;;;;;;7.80;7.00;;;;;;;7.91;59.67;98240.41;8446114;28;20223;-68
2022/12/28 09:41:26;;;;;;;8.23;6.90;;;;;;;8.04;59.55;98231.44;8446992;28;20231;-68
2022/12/28 09:45:29;;;;;;;7.23;6.53;;;;;;;7.71;60.39;98235.81;8446634;28;20233;-68
2022/12/28 09:49:38;;;;;;;7.30;6.60;;;;;;;7.56;60.67;98199.28;8446710;28;20519;-68
2022/12/28 09:53:43;;;;;;;7.90;6.10;;;;;;;7.80;60.79;98220.09;8446723;28;20522;-68
2022/12/28 09:57:48;;;;;;;6.50;5.90;;;;;;;7.92;60.32;98221.47;8446666;28;20238;-68
2022/12/28 10:01:58;;;;;;;6.90;6.20;;;;;;;8.23;59.42;98221.41;8446485;28;20413;-68
2022/12/28 10:06:02;;;;;;;7.27;6.57;;;;;;;8.04;59.79;98210.78;8445677;28;20329;-68
2022/12/28 10:10:07;;;;;;;7.13;6.43;;;;;;;8.37;59.08;98214.06;8446189;28;20547;-68
2022/12/28 10:14:18;;;;;;;9.13;6.30;;;;;;;8.51;58.52;98205.06;8445985;28;20238;-68
2022/12/28 10:18:23;;;;;;;7.07;5.80;;;;;;;8.53;58.29;98203.28;8446022;28;20235;-68
2022/12/28 10:22:36;;;;;;;7.23;6.07;;;;;;;8.59;58.47;98201.34;8445980;28;20222;-68
2022/12/28 10:26:41;;;;;;;8.77;6.03;;;;;;;8.69;58.21;98195.88;8445696;28;20235;-69
2022/12/28 10:30:45;;;;;;;6.83;6.13;;;;;;;8.79;57.93;98186.94;8445840;28;20227;-69
2022/12/28 10:34:55;;;;;;;7.37;6.47;;;;;;;8.75;58.00;98173.28;8445922;28;20290;-70
2022/12/28 10:38:58;;;;;;;6.57;5.60;;;;;;;8.64;57.88;98185.69;8445602;28;20238;-69
2022/12/28 10:43:03;;;;;;;6.80;5.87;;;;;;;8.97;58.13;98175.16;8445661;28;20261;-69
2022/12/28 10:47:17;;;;;;;5.67;5.10;;;;;;;8.97;57.76;98170.81;8445733;28;20353;-69
2022/12/28 10:51:21;;;;;;;6.60;5.73;;;;;;;8.87;58.21;98166.88;8445558;28;20220;-69
2022/12/28 10:55:28;;;;;;;6.83;5.93;;;;;;;8.87;58.04;98161.72;8445607;28;20239;-69
2022/12/28 10:59:32;;;;;;;6.90;5.70;;;;;;;9.12;57.38;98150.50;8445414;28;20228;-69
2022/12/28 11:03:37;;;;;;;6.27;5.67;;;;;;;9.11;57.76;98148.81;8445512;28;20224;-70
2022/12/28 11:07:40;;;;;;;8.40;5.70;;;;;;;9.23;57.92;98150.94;8445146;28;20240;-69
2022/12/28 11:11:45;;;;;;;6.23;5.63;;;;;;;9.16;57.50;98126.25;8445183;28;20239;-68
2022/12/28 11:15:50;;;;;;;6.17;5.57;;;;;;;9.43;57.44;98142.50;8445862;28;20424;-69
2022/12/28 11:19:55;;;;;;;6.37;5.77;;;;;;;9.46;57.56;98136.34;8451049;28;20274;-69
2022/12/28 11:23:58;;;;;;;6.53;5.80;;;;;;;9.78;56.95;98132.56;8450992;28;20228;-69
2022/12/28 11:28:01;;;;;;;6.10;5.10;;;;;;;9.86;56.55;98120.19;8451194;28;20242;-68
2022/12/28 11:32:11;;;;;;;5.87;5.27;;;;;;;9.84;55.95;98123.72;8450967;28;20230;-68
2022/12/28 11:36:15;;;;;;;5.40;4.90;;;;;;;9.73;56.02;98113.81;8451056;28;20237;-69
2022/12/28 11:40:52;;;;;;;7.23;5.60;;;;;;;9.95;55.67;98098.28;8450837;28;20235;-69
2022/12/28 11:44:55;;;;;;;5.87;5.20;;;;;;;9.79;56.25;98096.28;8450128;28;20248;-69
2022/12/28 11:49:00;;;;;;;5.10;4.60;;;;;;;9.56;55.36;98000.69;8450489;28;20519;-68
2022/12/28 11:53:04;;;;;;;5.13;4.43;;;;;;;10.32;54.74;98089.91;8450642;28;20224;-68
2022/12/28 11:57:33;;;;;;;5.83;5.23;;;;;;;9.97;55.53;98037.78;8450289;28;20234;-69
2022/12/28 12:01:46;;;;;;;9.30;6.70;;;;;;;10.56;57.31;98082.84;8449855;28;20235;-67
2022/12/28 12:05:52;;;;;;;13.53;7.67;;;;;;;10.69;57.07;98059.00;8449733;28;20231;-70
2022/12/28 12:10:32;;;;;;;4.60;4.20;;;;;;;10.26;54.18;98055.63;8449418;28;20414;-70
2022/12/28 12:14:38;;;;;;;5.63;4.53;;;;;;;10.24;55.14;98044.50;8449631;28;20239;-68
2022/12/28 12:18:45;;;;;;;4.47;4.03;;;;;;;10.19;54.81;98042.09;8449045;28;20242;-69
2022/12/28 12:22:51;;;;;;;4.63;4.00;;;;;;;9.91;54.95;98026.88;8449401;28;20232;-68
2022/12/28 12:26:57;;;;;;;5.57;4.50;;;;;;;10.37;56.04;98032.75;8448765;28;20230;-67
2022/12/28 12:31:01;;;;;;;4.53;4.13;;;;;;;10.54;54.14;98040.63;8449066;28;20296;-68
2022/12/28 12:35:06;;;;;;;4.73;4.23;;;;;;;10.43;54.33;98031.66;8448765;28;20334;-69
2022/12/28 12:39:32;;;;;;;4.80;4.40;;;;;;;9.87;55.51;98025.31;8448850;28;20246;-68
2022/12/28 12:43:46;;;;;;;4.50;4.10;;;;;;;10.29;54.74;98033.03;8448722;28;20232;-68
2022/12/28 12:48:12;;;;;;;5.23;4.77;;;;;;;9.91;55.79;98027.69;8448492;28;20234;-68
2022/12/28 12:52:26;;;;;;;5.17;4.60;;;;;;;10.11;55.16;98013.97;8448383;28;20223;-69
2022/12/28 12:56:45;;;;;;;4.67;4.00;;;;;;;10.34;54.60;98015.59;8448737;28;20224;-69
2022/12/28 13:00:59;;;;;;;4.93;4.10;;;;;;;9.91;56.31;98011.34;8448321;28;20238;-68
2022/12/28 13:05:03;;;;;;;5.63;4.70;;;;;;;10.01;55.60;98007.47;8447898;28;20290;-69
2022/12/28 13:09:07;;;;;;;5.00;4.53;;;;;;;10.13;55.53;98006.97;8447933;28;20232;-68
2022/12/28 13:13:18;;;;;;;5.73;5.03;;;;;;;10.22;55.58;97987.59;8448073;28;20240;-69
2022/12/28 13:17:22;;;;;;;5.33;4.80;;;;;;;9.85;55.70;97934.00;8447353;28;20238;-69
2022/12/28 13:21:28;;;;;;;4.70;4.30;;;;;;;10.47;54.95;97990.03;8447392;28;20224;-68
2022/12/28 13:25:33;;;;;;;4.17;3.83;;;;;;;10.32;55.11;97976.00;8447387;28;20227;-69
2022/12/28 13:29:39;;;;;;;4.97;3.53;;;;;;;10.55;55.02;97980.19;8447162;28;20238;-69
2022/12/28 13:33:53;;;;;;;5.30;4.23;;;;;;;10.63;54.91;97981.59;8446845;28;20275;-69
2022/12/28 13:38:02;;;;;;;4.10;3.70;;;;;;;10.66;55.02;97978.84;8446736;28;20224;-69
2022/12/28 13:42:11;;;;;;;4.90;4.10;;;;;;;10.53;55.13;97963.88;8446648;28;20243;-68
2022/12/28 13:46:17;;;;;;;4.97;4.10;;;;;;;10.61;55.32;97971.28;8446860;28;20215;-69
2022/12/28 13:50:23;;;;;;;4.43;4.00;;;;;;;10.63;56.10;97964.28;8446752;28;20227;-69
2022/12/28 13:54:25;;;;;;;3.93;3.50;;;;;;;10.75;55.88;97973.25;8446433;28;20237;-69
2022/12/28 13:58:30;;;;;;;4.53;3.57;;;;;;;10.70;55.71;97962.25;8446362;28;20234;-69
2022/12/28 14:02:35;;;;;;;3.77;3.37;;;;;;;10.61;56.05;97954.94;8446608;28;20230;-69
2022/12/28 14:06:39;;;;;;;5.07;4.43;;;;;;;10.60;55.86;97959.25;8446301;28;20221;-69
2022/12/28 14:10:42;;;;;;;5.27;4.57;;;;;;;10.51;56.37;97954.50;8446427;28;20438;-69
2022/12/28 14:14:45;;;;;;;4.70;4.30;;;;;;;10.44;56.18;97953.91;8446446;28;20225;-69
2022/12/28 14:18:50;;;;;;;6.67;4.93;;;;;;;10.48;55.83;97954.63;8446160;28;20241;-68
2022/12/28 14:22:53;;;;;;;7.90;5.40;;;;;;;10.43;56.40;97953.97;8445585;28;20230;-69
2022/12/28 14:26:57;;;;;;;5.33;4.50;;;;;;;10.39;56.31;97963.63;8445912;28;20232;-69
2022/12/28 14:31:00;;;;;;;5.90;4.60;;;;;;;10.36;56.93;97958.59;8445896;28;20227;-69
2022/12/28 14:35:05;;;;;;;5.17;4.50;;;;;;;10.40;56.70;97964.47;8445664;28;20238;-68
2022/12/28 14:39:23;;;;;;;4.63;3.90;;;;;;;10.36;56.55;97919.78;8445764;28;20243;-68
2022/12/28 14:43:28;;;;;;;4.33;3.10;;;;;;;10.40;57.26;97954.13;8445558;28;20418;-68
2022/12/28 14:47:35;;;;;;;3.20;2.90;;;;;;;10.38;57.24;97956.78;8445482;28;20230;-67
2022/12/28 14:51:39;;;;;;;3.50;3.10;;;;;;;10.43;57.36;97941.03;8447756;28;20418;-68
2022/12/28 14:55:56;;;;;;;3.43;2.93;;;;;;;10.29;57.46;97941.63;8452187;28;20283;-68
2022/12/28 15:00:02;;;;;;;3.80;3.43;;;;;;;10.06;58.41;97946.03;8451645;28;20229;-70
2022/12/28 15:04:05;;;;;;;4.23;3.17;;;;;;;10.02;58.19;97933.31;8452091;28;20432;-68
2022/12/28 15:08:10;;;;;;;3.47;2.90;;;;;;;10.02;58.19;97931.53;8451790;28;20233;-68
2022/12/28 15:12:14;;;;;;;3.50;2.87;;;;;;;10.16;58.32;97929.19;8451864;28;20230;-68
2022/12/28 15:16:21;;;;;;;3.30;2.57;;;;;;;10.17;58.10;97925.72;8451025;28;20227;-68
2022/12/28 15:20:24;;;;;;;3.43;2.60;;;;;;;9.93;58.69;97924.16;8451295;28;20234;-68
2022/12/28 15:24:28;;;;;;;4.63;2.77;;;;;;;9.91;58.65;97932.00;8451293;28;20226;-68
2022/12/28 15:28:35;;;;;;;4.87;2.57;;;;;;;10.06;58.74;97924.50;8451105;28;20537;-70
2022/12/28 15:32:38;;;;;;;3.30;2.30;;;;;;;9.97;59.59;97925.72;8450537;28;20229;-69
2022/12/28 15:36:44;;;;;;;3.13;2.60;;;;;;;9.98;58.76;97915.31;8450990;28;20259;-68
2022/12/28 15:40:48;;;;;;;4.17;2.50;;;;;;;9.94;58.00;97913.75;8450634;28;20439;-69
2022/12/28 15:44:52;;;;;;;4.00;2.70;;;;;;;9.85;58.41;97908.97;8450556;28;20231;-68
2022/12/28 15:48:55;;;;;;;2.77;2.50;;;;;;;9.92;58.12;97907.81;8449909;28;20229;-68
2022/12/28 15:52:58;;;;;;;5.07;3.10;;;;;;;10.00;58.24;97911.81;8450247;28;20229;-68
2022/12/28 15:57:02;;;;;;;3.67;3.30;;;;;;;9.99;57.99;97900.63;8450650;28;20232;-69
2022/12/28 16:01:05;;;;;;;4.73;3.20;;;;;;;10.02;57.82;97895.31;8450152;28;20322;-70
2022/12/28 16:05:09;;;;;;;3.97;2.63;;;;;;;10.12;57.70;97895.75;8449914;28;20232;-69
2022/12/28 16:09:12;;;;;;;3.30;2.40;;;;;;;9.65;58.61;97890.88;8449738;28;20233;-69
2022/12/28 16:13:16;;;;;;;3.03;2.40;;;;;;;9.42;57.53;97807.34;8450223;28;20226;-69
2022/12/28 16:17:19;;;;;;;2.93;2.60;;;;;;;9.94;57.98;97889.66;8449812;28;20501;-69
2022/12/28 16:21:22;;;;;;;4.07;3.67;;;;;;;9.92;57.93;97888.88;8449435;28;20232;-69
2022/12/28 16:25:25;;;;;;;4.47;2.70;;;;;;;9.68;58.49;97895.91;8449318;28;20510;-69
2022/12/28 16:29:29;;;;;;;3.53;3.23;;;;;;;9.73;57.81;97881.06;8449403;28;20240;-69
2022/12/28 16:33:32;;;;;;;2.90;2.70;;;;;;;9.73;57.98;97897.41;8449108;28;20229;-69
2022/12/28 16:37:34;;;;;;;3.97;3.00;;;;;;;9.68;57.91;97886.41;8448901;28;20560;-69
2022/12/28 16:41:37;;;;;;;3.40;3.10;;;;;;;9.51;58.42;97875.94;8448831;28;20235;-70
2022/12/28 16:45:43;;;;;;;3.60;2.60;;;;;;;9.49;57.73;97857.06;8448909;28;20232;-67
2022/12/28 16:49:46;;;;;;;3.00;2.70;;;;;;;9.57;57.91;97873.91;8448535;28;20232;-69
2022/12/28 16:53:49;;;;;;;2.97;2.60;;;;;;;9.76;57.46;97878.31;8448331;28;20439;-70
2022/12/28 16:57:51;;;;;;;4.07;2.90;;;;;;;9.68;57.26;97868.31;8448572;28;20226;-69
2022/12/28 17:01:56;;;;;;;3.30;3.00;;;;;;;9.71;57.18;97859.56;8447967;28;20227;-68
2022/12/28 17:06:00;;;;;;;5.17;3.20;;;;;;;9.57;57.01;97844.66;8448148;28;20235;-70
2022/12/28 17:10:02;;;;;;;4.20;2.77;;;;;;;9.66;57.00;97858.94;8447824;28;20232;-69
2022/12/28 17:14:06;;;;;;;2.70;2.50;;;;;;;9.58;57.00;97854.94;8447033;28;20234;-69
2022/12/28 17:18:11;;;;;;;3.10;2.53;;;;;;;9.50;57.29;97861.31;8447911;28;20347;-69
2022/12/28 17:22:14;;;;;;;2.53;2.30;;;;;;;9.53;57.44;97864.63;8447773;28;20225;-69
2022/12/28 17:26:16;;;;;;;2.70;2.50;;;;;;;9.54;57.16;97858.56;8447422;28;20426;-68
2022/12/28 17:30:19;;;;;;;2.90;2.17;;;;;;;9.13;57.63;97821.50;8447603;28;20237;-69
2022/12/28 17:34:24;;;;;;;3.20;2.90;;;;;;;9.43;57.45;97852.97;8447394;28;20226;-69
2022/12/28 17:38:28;;;;;;;6.30;2.20;;;;;;;9.52;57.22;97854.31;8447286;28;20225;-68
2022/12/28 17:42:31;;;;;;;2.37;2.00;;;;;;;9.50;56.69;97859.59;8446984;28;20230;-69
2022/12/28 17:46:39;;;;;;;3.53;2.20;;;;;;;9.50;56.39;97838.91;8447183;28;20234;-68
2022/12/28 17:50:44;;;;;;;4.47;2.23;;;;;;;9.31;56.83;97827.63;8446840;28;20238;-68
2022/12/28 17:54:47;;;;;;;3.60;2.27;;;;;;;9.27;56.73;97821.78;8446761;28;20503;-68
2022/12/28 17:58:53;;;;;;;2.67;2.20;;;;;;;9.24;56.91;97828.81;8446621;28;20237;-69
2022/12/28 18:02:57;;;;;;;2.27;1.97;;;;;;;9.12;56.96;97827.53;8445993;28;20225;-68
2022/12/28 18:07:02;;;;;;;3.40;2.60;;;;;;;8.92;56.98;97820.63;8446594;28;20247;-68
2022/12/28 18:11:07;;;;;;;4.80;2.40;;;;;;;9.28;56.68;97810.53;8445911;28;20236;-68
2022/12/28 18:15:10;;;;;;;3.17;2.37;;;;;;;9.35;56.14;97811.94;8446415;28;20227;-68
2022/12/28 18:19:13;;;;;;;4.83;3.67;;;;;;;9.30;56.19;97802.72;8446072;28;20228;-68
2022/12/28 18:23:17;;;;;;;4.47;3.00;;;;;;;9.48;55.89;97804.53;8446004;28;20253;-68
2022/12/28 18:27:20;;;;;;;3.40;2.67;;;;;;;9.31;55.69;97791.44;8454761;28;20226;-68
2022/12/28 18:31:24;;;;;;;3.97;2.90;;;;;;;9.46;55.25;97790.84;8456908;28;20243;-68
2022/12/28 18:35:27;;;;;;;2.60;2.40;;;;;;;9.26;55.48;97798.56;8457134;28;20228;-68
2022/12/28 18:39:32;;;;;;;40.20;27.17;;;;;;;10.78;68.14;97791.81;8456747;28;20228;-69
2022/12/28 18:43:35;;;;;;;11.20;8.10;;;;;;;11.56;56.85;97774.13;8456858;28;20238;-69
2022/12/28 18:47:38;;;;;;;7.93;4.53;;;;;;;10.72;52.26;97780.00;8457020;28;20231;-68
2022/12/28 18:51:41;;;;;;;13.63;7.17;;;;;;;10.10;53.43;97766.44;8456910;28;20534;-68
2022/12/28 18:55:45;;;;;;;7.90;5.83;;;;;;;9.84;54.23;97749.50;8456991;28;20227;-69
2022/12/28 18:59:48;;;;;;;7.10;5.33;;;;;;;9.88;53.87;97758.84;8457072;28;20234;-67
2022/12/28 19:03:53;;;;;;;6.77;5.20;;;;;;;9.47;53.54;97720.13;8456892;28;20227;-68
2022/12/28 19:07:56;;;;;;;37.97;17.37;;;;;;;9.10;55.70;97747.56;8456327;28;20286;-68
2022/12/28 19:12:00;;;;;;;12.73;8.53;;;;;;;9.06;54.92;97752.88;8456039;28;20254;-67
2022/12/28 19:16:04;;;;;;;6.50;5.30;;;;;;;9.32;54.66;97728.53;8456461;28;20513;-67
2022/12/28 19:20:08;;;;;;;5.17;4.30;;;;;;;9.18;55.17;97742.88;8456377;28;20249;-67
2022/12/28 19:24:15;;;;;;;5.07;3.47;;;;;;;9.33;54.69;97745.75;8456232;28;20227;-68
2022/12/28 19:28:19;;;;;;;3.67;3.17;;;;;;;9.47;54.33;97743.38;8456323;28;20229;-68
2022/12/28 19:32:22;;;;;;;4.30;3.60;;;;;;;9.22;54.72;97717.75;8456251;28;20233;-67
2022/12/28 19:36:24;;;;;;;4.40;3.70;;;;;;;8.98;55.78;97724.78;8454739;28;20222;-67
2022/12/28 19:40:27;;;;;;;7.57;4.70;;;;;;;9.48;54.45;97718.38;8450837;28;20231;-68
2022/12/28 19:44:32;;;;;;;6.27;3.53;;;;;;;9.47;54.02;97714.13;8450733;28;20242;-68
2022/12/28 19:48:35;;;;;;;3.27;2.97;;;;;;;9.38;54.04;97710.19;8450888;28;20226;-67
2022/12/28 19:52:37;;;;;;;4.53;3.37;;;;;;;9.07;54.41;97715.84;8450550;28;20283;-67